createdAt,value
2022-11-22T00:02:12.000Z,8.45
2022-11-22T00:04:38.000Z,7.97
2022-11-22T00:07:04.000Z,8.3
2022-11-22T00:09:30.000Z,6.75
2022-11-22T00:11:55.000Z,6.7
2022-11-22T00:14:21.000Z,7.1
2022-11-22T00:16:48.000Z,6.87
2022-11-22T00:19:13.000Z,6.35
2022-11-22T00:21:39.000Z,6.17
2022-11-22T00:24:05.000Z,5.35
2022-11-22T00:29:51.000Z,4.85
2022-11-22T00:35:55.000Z,5.17
2022-11-22T00:38:17.000Z,4.78
2022-11-22T00:40:43.000Z,4.47
2022-11-22T00:43:09.000Z,4.8
2022-11-22T00:45:34.000Z,4.3
2022-11-22T00:48:00.000Z,4.2
2022-11-22T00:50:28.000Z,4.2
2022-11-22T00:52:54.000Z,3.83
2022-11-22T00:55:19.000Z,3.7
2022-11-22T00:57:44.000Z,3.95
2022-11-22T01:00:13.000Z,3.67
2022-11-22T01:02:35.000Z,3.97
2022-11-22T01:05:01.000Z,4.1
2022-11-22T01:07:28.000Z,4
2022-11-22T01:09:53.000Z,4.8
2022-11-22T01:12:19.000Z,4.45
2022-11-22T01:14:45.000Z,5.33
2022-11-22T01:17:11.000Z,4.7
2022-11-22T01:19:37.000Z,5.1
2022-11-22T01:22:03.000Z,4.7
2022-11-22T01:24:28.000Z,4.57
2022-11-22T01:26:53.000Z,5.87
2022-11-22T01:29:21.000Z,4.97
2022-11-22T01:31:46.000Z,5.33
2022-11-22T01:34:12.000Z,5.4
2022-11-22T01:36:38.000Z,5
2022-11-22T01:39:04.000Z,5.6
2022-11-22T01:41:29.000Z,5.4
2022-11-22T01:43:55.000Z,5.3
2022-11-22T01:46:21.000Z,5.2
2022-11-22T01:48:47.000Z,5.95
2022-11-22T01:51:12.000Z,5.4
2022-11-22T01:53:38.000Z,5.37
2022-11-22T01:56:04.000Z,5.65
2022-11-22T01:58:30.000Z,5.15
2022-11-22T02:00:56.000Z,5.13
2022-11-22T02:03:21.000Z,5.57
2022-11-22T02:05:46.000Z,5.35
2022-11-22T02:08:13.000Z,5.9
2022-11-22T02:10:38.000Z,5.83
2022-11-22T02:13:04.000Z,5.97
2022-11-22T02:15:30.000Z,6.35
2022-11-22T02:17:55.000Z,6.6
2022-11-22T02:20:21.000Z,7.4
2022-11-22T02:22:47.000Z,7.67
2022-11-22T02:25:13.000Z,6.87
2022-11-22T02:27:39.000Z,6.95
2022-11-22T02:30:05.000Z,6.55
2022-11-22T02:32:30.000Z,6.65
2022-11-22T02:34:56.000Z,6.6
2022-11-22T02:37:22.000Z,6.1
2022-11-22T02:39:49.000Z,6.13
2022-11-22T02:42:14.000Z,6.1
2022-11-22T02:44:40.000Z,6.4
2022-11-22T02:47:07.000Z,5.77
2022-11-22T02:49:34.000Z,5.37
2022-11-22T02:51:57.000Z,5.57
2022-11-22T02:54:23.000Z,4.25
2022-11-22T02:56:49.000Z,4.58
2022-11-22T02:59:21.000Z,4.65
2022-11-22T03:01:46.000Z,4.4
2022-11-22T03:04:07.000Z,4.6
2022-11-22T03:06:33.000Z,4.97
2022-11-22T03:08:59.000Z,5.3
2022-11-22T03:11:25.000Z,5.47
2022-11-22T03:13:51.000Z,5.03
2022-11-22T03:16:17.000Z,4.6
2022-11-22T03:18:43.000Z,5.87
2022-11-22T03:21:08.000Z,6.23
2022-11-22T03:23:34.000Z,5.72
2022-11-22T03:25:59.000Z,5.75
2022-11-22T03:28:27.000Z,5.2
2022-11-22T03:30:52.000Z,4.9
2022-11-22T03:33:17.000Z,5.8
2022-11-22T03:35:43.000Z,5.5
2022-11-22T03:38:09.000Z,8.35
2022-11-22T03:40:35.000Z,7.6
2022-11-22T03:43:01.000Z,6.03
2022-11-22T03:45:27.000Z,5.92
2022-11-22T03:47:52.000Z,6.67
2022-11-22T03:50:18.000Z,6.47
2022-11-22T03:52:44.000Z,6.08
2022-11-22T03:55:11.000Z,6.7
2022-11-22T03:57:36.000Z,7.58
2022-11-22T04:00:02.000Z,7.42
2022-11-22T04:02:27.000Z,7.33
2022-11-22T04:04:53.000Z,7.77
2022-11-22T04:07:19.000Z,7.12
2022-11-22T04:09:45.000Z,6.53
2022-11-22T04:12:10.000Z,6.62
2022-11-22T04:14:36.000Z,7.2
2022-11-22T04:17:03.000Z,6.9
2022-11-22T04:21:54.000Z,7.55
2022-11-22T04:24:20.000Z,6.6
2022-11-22T04:26:46.000Z,8.5
2022-11-22T04:29:11.000Z,9.97
2022-11-22T04:31:37.000Z,9.87
2022-11-22T04:34:03.000Z,6.65
2022-11-22T04:36:30.000Z,7.37
2022-11-22T04:38:55.000Z,8.85
2022-11-22T04:41:21.000Z,8.6
2022-11-22T04:43:48.000Z,5.7
2022-11-22T04:46:14.000Z,4.4
2022-11-22T04:48:40.000Z,4.85
2022-11-22T04:51:06.000Z,4.7
2022-11-22T04:53:33.000Z,6
2022-11-22T04:55:58.000Z,5.4
2022-11-22T04:58:24.000Z,4.8
2022-11-22T05:00:55.000Z,4.42
2022-11-22T05:03:15.000Z,4.42
2022-11-22T05:05:41.000Z,4.73
2022-11-22T05:08:08.000Z,5.1
2022-11-22T05:10:32.000Z,5.9
2022-11-22T05:12:58.000Z,7.53
2022-11-22T05:15:25.000Z,7
2022-11-22T05:17:49.000Z,8.95
2022-11-22T05:20:16.000Z,7.97
2022-11-22T05:22:41.000Z,8.7
2022-11-22T05:25:07.000Z,8.4
2022-11-22T05:27:33.000Z,7.08
2022-11-22T05:29:58.000Z,7.33
2022-11-22T05:32:25.000Z,6.72
2022-11-22T05:34:50.000Z,6.3
2022-11-22T05:37:16.000Z,6.58
2022-11-22T05:39:41.000Z,6.2
2022-11-22T05:42:09.000Z,6.7
2022-11-22T05:44:33.000Z,6.45
2022-11-22T05:46:59.000Z,7.3
2022-11-22T05:49:25.000Z,6.37
2022-11-22T05:51:50.000Z,7.13
2022-11-22T05:54:16.000Z,6.8
2022-11-22T05:56:43.000Z,7.47
2022-11-22T05:59:11.000Z,8.17
2022-11-22T06:02:08.000Z,8.57
2022-11-22T06:04:03.000Z,7.8
2022-11-22T06:06:28.000Z,8.27
2022-11-22T06:08:55.000Z,8.7
2022-11-22T06:11:21.000Z,8.9
2022-11-22T06:13:48.000Z,9.05
2022-11-22T06:16:12.000Z,8.93
2022-11-22T06:18:37.000Z,9.1
2022-11-22T06:21:05.000Z,9.88
2022-11-22T06:23:29.000Z,9.43
2022-11-22T06:25:55.000Z,9.63
2022-11-22T06:28:21.000Z,9.47
2022-11-22T06:30:46.000Z,8.63
2022-11-22T06:33:12.000Z,8.45
2022-11-22T06:35:39.000Z,8.23
2022-11-22T06:38:04.000Z,7.43
2022-11-22T06:40:30.000Z,7.37
2022-11-22T06:42:57.000Z,7.92
2022-11-22T06:45:24.000Z,7.97
2022-11-22T06:47:49.000Z,8.3
2022-11-22T06:50:20.000Z,8.45
2022-11-22T06:52:45.000Z,9.83
2022-11-22T06:55:12.000Z,9.23
2022-11-22T06:57:36.000Z,8.68
2022-11-22T07:00:03.000Z,9.4
2022-11-22T07:02:27.000Z,8.85
2022-11-22T07:04:53.000Z,8.43
2022-11-22T07:07:19.000Z,8.37
2022-11-22T07:09:45.000Z,8.08
2022-11-22T07:12:10.000Z,7.77
2022-11-22T07:14:36.000Z,8.4
2022-11-22T07:17:01.000Z,7.92
2022-11-22T07:19:27.000Z,8.67
2022-11-22T07:21:53.000Z,8.43
2022-11-22T07:24:19.000Z,8.03
2022-11-22T07:26:45.000Z,7.47
2022-11-22T07:29:10.000Z,6.8
2022-11-22T07:31:36.000Z,6.5
2022-11-22T07:34:02.000Z,6.28
2022-11-22T07:36:27.000Z,5.9
2022-11-22T07:38:54.000Z,5.6
2022-11-22T07:41:19.000Z,5.1
2022-11-22T07:43:45.000Z,5.17
2022-11-22T07:46:12.000Z,5.7
2022-11-22T07:48:37.000Z,6.5
2022-11-22T07:51:04.000Z,7.03
2022-11-22T07:53:32.000Z,7.2
2022-11-22T07:55:57.000Z,7.4
2022-11-22T07:58:23.000Z,6.95
2022-11-22T08:01:00.000Z,6.42
2022-11-22T08:03:15.000Z,6.53
2022-11-22T08:05:44.000Z,6.1
2022-11-22T08:08:12.000Z,5.9
2022-11-22T08:10:37.000Z,6.12
2022-11-22T08:13:03.000Z,6.13
2022-11-22T08:15:31.000Z,5.73
2022-11-22T08:17:55.000Z,5.92
2022-11-22T08:20:21.000Z,5.58
2022-11-22T08:22:45.000Z,4.67
2022-11-22T08:25:16.000Z,4.9
2022-11-22T08:27:42.000Z,4.92
2022-11-22T08:30:10.000Z,4.95
2022-11-22T08:32:32.000Z,4.8
2022-11-22T08:34:58.000Z,4.37
2022-11-22T08:37:25.000Z,4.87
2022-11-22T08:39:50.000Z,5.6
2022-11-22T08:42:18.000Z,6.2
2022-11-22T08:44:42.000Z,7.07
2022-11-22T08:47:08.000Z,6.7
2022-11-22T08:49:34.000Z,6.45
2022-11-22T08:52:00.000Z,5.83
2022-11-22T08:54:27.000Z,5.6
2022-11-22T08:56:52.000Z,5.03
2022-11-22T08:59:27.000Z,5.3
2022-11-22T09:01:46.000Z,4.92
2022-11-22T09:04:13.000Z,5.05
2022-11-22T09:11:33.000Z,5.15
2022-11-22T09:13:59.000Z,5
2022-11-22T09:16:25.000Z,6.4
2022-11-22T09:18:51.000Z,6.37
2022-11-22T09:21:19.000Z,7.63
2022-11-22T09:23:43.000Z,7.9
2022-11-22T09:26:10.000Z,7.72
2022-11-22T09:28:35.000Z,7.72
2022-11-22T09:31:01.000Z,8.9
2022-11-22T09:33:27.000Z,7.77
2022-11-22T09:35:52.000Z,7.67
2022-11-22T09:38:18.000Z,7.9
2022-11-22T09:40:44.000Z,7.87
2022-11-22T09:43:11.000Z,8.3
2022-11-22T09:45:36.000Z,8.3
2022-11-22T09:48:03.000Z,8.27
2022-11-22T09:50:28.000Z,8.88
2022-11-22T09:52:55.000Z,7.87
2022-11-22T09:55:21.000Z,8.6
2022-11-22T09:57:49.000Z,9.05
2022-11-22T10:00:23.000Z,9.85
2022-11-22T10:02:42.000Z,9.28
2022-11-22T10:05:07.000Z,9.13
2022-11-22T10:07:33.000Z,8.83
2022-11-22T10:09:58.000Z,9.25
2022-11-22T10:12:24.000Z,9.55
2022-11-22T10:14:50.000Z,9.3
2022-11-22T10:17:16.000Z,10.03
2022-11-22T10:19:41.000Z,9.8
2022-11-22T10:22:09.000Z,10.33
2022-11-22T10:24:33.000Z,9.88
2022-11-22T10:26:59.000Z,9.45
2022-11-22T10:29:28.000Z,10
2022-11-22T10:31:54.000Z,8.88
2022-11-22T10:34:21.000Z,9.23
2022-11-22T10:39:16.000Z,9.95
2022-11-22T10:41:44.000Z,10.4
2022-11-22T10:44:09.000Z,10.6
2022-11-22T10:46:38.000Z,10.7
2022-11-22T10:49:06.000Z,11.4
2022-11-22T10:51:32.000Z,11.48
2022-11-22T10:54:01.000Z,10.35
2022-11-22T10:56:27.000Z,10.2
2022-11-22T10:58:53.000Z,10.7
2022-11-22T11:01:23.000Z,9.85
2022-11-22T11:06:11.000Z,9.58
2022-11-22T11:11:04.000Z,9.2
2022-11-22T11:13:29.000Z,9.65
2022-11-22T11:15:56.000Z,9.28
2022-11-22T11:18:22.000Z,9.18
2022-11-22T11:20:47.000Z,9.7
2022-11-22T11:23:14.000Z,11.08
2022-11-22T11:25:41.000Z,11.22
2022-11-22T11:30:33.000Z,8.85
2022-11-22T11:32:59.000Z,9.1
2022-11-22T11:35:29.000Z,9.08
2022-11-22T11:37:55.000Z,8.5
2022-11-22T11:42:52.000Z,8.73
2022-11-22T11:45:22.000Z,8.28
2022-11-22T11:47:49.000Z,8.25
2022-11-22T11:50:15.000Z,7.53
2022-11-22T11:52:41.000Z,8.2
2022-11-22T11:55:10.000Z,8.8
2022-11-22T11:57:34.000Z,7.8
2022-11-22T12:00:17.000Z,7.63
2022-11-22T12:03:06.000Z,6.78
2022-11-22T12:05:01.000Z,6.33
2022-11-22T12:07:28.000Z,6.67
2022-11-22T12:09:56.000Z,5.83
2022-11-22T12:12:22.000Z,6.3
2022-11-22T12:14:49.000Z,6.07
2022-11-22T12:17:16.000Z,6.15
2022-11-22T12:19:41.000Z,5.92
2022-11-22T12:22:10.000Z,5.62
2022-11-22T12:24:39.000Z,5.47
2022-11-22T12:27:08.000Z,5.92
2022-11-22T12:29:37.000Z,5.65
2022-11-22T12:32:05.000Z,5.53
2022-11-22T12:34:33.000Z,5.95
2022-11-22T12:36:59.000Z,6.03
2022-11-22T12:39:28.000Z,5.72
2022-11-22T12:41:57.000Z,5.33
2022-11-22T12:46:54.000Z,5.47
2022-11-22T12:49:21.000Z,4.9
2022-11-22T12:51:48.000Z,5.23
2022-11-22T12:54:17.000Z,5.6
2022-11-22T12:56:46.000Z,5.22
2022-11-22T12:59:16.000Z,5.2
2022-11-22T13:01:58.000Z,5.6
2022-11-22T13:04:10.000Z,4.9
2022-11-22T13:06:37.000Z,5.33
2022-11-22T13:09:04.000Z,5.3
2022-11-22T13:11:30.000Z,5.2
2022-11-22T13:13:57.000Z,4.62
2022-11-22T13:16:31.000Z,4.78
2022-11-22T13:18:56.000Z,4.72
2022-11-22T13:21:22.000Z,4.95
2022-11-22T13:26:19.000Z,4.7
2022-11-22T13:28:50.000Z,4.2
2022-11-22T13:31:17.000Z,4.25
2022-11-22T13:33:45.000Z,4.4
2022-11-22T13:36:11.000Z,4.47
2022-11-22T13:38:37.000Z,4.47
2022-11-22T13:41:03.000Z,3.92
2022-11-22T13:43:31.000Z,4.2
2022-11-22T13:46:03.000Z,4.1
2022-11-22T13:48:31.000Z,4.3
2022-11-22T13:51:00.000Z,4.35
2022-11-22T13:53:32.000Z,3.75
2022-11-22T13:56:01.000Z,3.98
2022-11-22T13:58:28.000Z,3.9
2022-11-22T14:00:56.000Z,3.8
2022-11-22T14:03:24.000Z,3.52
2022-11-22T14:08:25.000Z,4.12
2022-11-22T14:10:51.000Z,4.25
2022-11-22T14:13:18.000Z,4.12
2022-11-22T14:15:44.000Z,3.98
2022-11-22T14:18:13.000Z,3.8
2022-11-22T14:20:38.000Z,4
2022-11-22T14:23:10.000Z,4.6
2022-11-22T14:25:36.000Z,4.55
2022-11-22T14:27:57.000Z,4.33
2022-11-22T14:30:23.000Z,4.1
2022-11-22T14:32:53.000Z,3.95
2022-11-22T14:35:19.000Z,4.12
2022-11-22T14:37:46.000Z,3.85
2022-11-22T14:40:12.000Z,3.77
2022-11-22T14:42:39.000Z,4.15
2022-11-22T14:45:09.000Z,4.1
2022-11-22T14:47:35.000Z,4.2
2022-11-22T14:50:00.000Z,4.35
2022-11-22T14:52:27.000Z,4
2022-11-22T14:54:52.000Z,5.12
2022-11-22T14:57:18.000Z,4.4
2022-11-22T14:59:53.000Z,4.37
2022-11-22T15:02:10.000Z,4.28
2022-11-22T15:07:00.000Z,4.33
2022-11-22T15:07:00.000Z,4.33
2022-11-22T15:09:27.000Z,4.4
2022-11-22T15:11:53.000Z,4.47
2022-11-22T15:14:18.000Z,4.4
2022-11-22T15:58:07.000Z,2.72
2022-11-22T16:00:51.000Z,2.5
2022-11-22T16:03:20.000Z,2.7
2022-11-22T16:05:25.000Z,2.27
2022-11-22T16:07:50.000Z,2.55
2022-11-22T16:10:17.000Z,2.62
2022-11-22T16:12:42.000Z,2.12
2022-11-22T16:15:09.000Z,2.6
2022-11-22T16:17:33.000Z,2.33
2022-11-22T16:19:58.000Z,2.4
2022-11-22T16:22:24.000Z,2.02
2022-11-22T16:24:50.000Z,2.1
2022-11-22T16:27:15.000Z,2.1
2022-11-22T16:29:42.000Z,2
2022-11-22T16:32:08.000Z,2.3
2022-11-22T16:34:32.000Z,2.2
2022-11-22T16:36:58.000Z,2.87
2022-11-22T16:39:25.000Z,2.52
2022-11-22T16:41:53.000Z,2.95
2022-11-22T16:44:16.000Z,3.6
2022-11-22T16:46:41.000Z,2.9
2022-11-22T16:49:09.000Z,3.35
2022-11-22T16:51:34.000Z,2.83
2022-11-22T16:53:58.000Z,3
2022-11-22T16:56:24.000Z,2.9
2022-11-22T16:58:50.000Z,2.85
2022-11-22T17:01:21.000Z,2.95
2022-11-22T17:03:43.000Z,2.77
2022-11-22T17:06:08.000Z,2.6
2022-11-22T17:08:34.000Z,2.65
2022-11-22T17:11:03.000Z,2.45
2022-11-22T17:13:25.000Z,2.8
2022-11-22T17:15:51.000Z,2.92
2022-11-22T17:18:17.000Z,3.47
2022-11-22T17:20:42.000Z,3.5
2022-11-22T17:23:08.000Z,3.4
2022-11-22T17:25:34.000Z,2.9
2022-11-22T17:27:59.000Z,3.22
2022-11-22T17:30:26.000Z,3.5
2022-11-22T17:32:56.000Z,3.2
2022-11-22T17:35:18.000Z,2.8
2022-11-22T17:37:44.000Z,2.73
2022-11-22T17:40:13.000Z,2.7
2022-11-22T17:42:36.000Z,2.9
2022-11-22T17:45:01.000Z,2.62
2022-11-22T17:47:27.000Z,2.77
2022-11-22T17:49:53.000Z,2.3
2022-11-22T17:52:19.000Z,2.7
2022-11-22T17:54:44.000Z,2.6
2022-11-22T17:57:09.000Z,2.47
2022-11-22T17:59:46.000Z,2.77
2022-11-22T18:02:03.000Z,2.47
2022-11-22T18:04:27.000Z,2.65
2022-11-22T18:06:53.000Z,2.9
2022-11-22T18:09:19.000Z,2.63
2022-11-22T18:11:44.000Z,2.8
2022-11-22T18:14:11.000Z,2.85
2022-11-22T18:16:36.000Z,2.4
2022-11-22T18:19:03.000Z,2.43
2022-11-22T18:21:29.000Z,2.4
2022-11-22T18:23:54.000Z,2.35
2022-11-22T18:26:19.000Z,2.4
2022-11-22T18:28:45.000Z,2.35
2022-11-22T18:31:12.000Z,2.22
2022-11-22T18:33:37.000Z,2.2
2022-11-22T18:36:03.000Z,2
2022-11-22T18:38:28.000Z,2.3
2022-11-22T18:40:55.000Z,2.3
2022-11-22T18:43:21.000Z,2.3
2022-11-22T18:45:46.000Z,2.12
2022-11-22T18:48:12.000Z,2.1
2022-11-22T18:50:38.000Z,2.17
2022-11-22T18:53:03.000Z,2
2022-11-22T18:55:29.000Z,1.95
2022-11-22T18:58:02.000Z,1.92
2022-11-22T19:00:33.000Z,1.87
2022-11-22T19:02:47.000Z,1.6
2022-11-22T19:05:14.000Z,1.7
2022-11-22T19:07:38.000Z,2
2022-11-22T19:10:04.000Z,1.7
2022-11-22T19:12:30.000Z,1.7
2022-11-22T19:14:56.000Z,2
2022-11-22T19:17:24.000Z,1.67
2022-11-22T19:26:28.000Z,1.72
2022-11-22T19:28:50.000Z,1.9
2022-11-22T19:31:17.000Z,1.8
2022-11-22T19:33:42.000Z,1.65
2022-11-22T19:36:08.000Z,1.87
2022-11-22T19:38:34.000Z,1.9
2022-11-22T19:41:00.000Z,2.17
2022-11-22T19:43:25.000Z,3.7
2022-11-22T19:45:51.000Z,3.2
2022-11-22T19:48:17.000Z,2.42
2022-11-22T19:50:43.000Z,2.5
2022-11-22T19:53:09.000Z,2.03
2022-11-22T19:55:35.000Z,2.47
2022-11-22T19:58:00.000Z,1.87
2022-11-22T20:00:56.000Z,1.72
2022-11-22T20:06:36.000Z,1.7
2022-11-22T20:08:58.000Z,1.7
2022-11-22T20:11:24.000Z,1.6
2022-11-22T20:13:50.000Z,1.63
2022-11-22T20:16:16.000Z,1.77
2022-11-22T20:18:42.000Z,1.53
2022-11-22T20:21:08.000Z,1.6
2022-11-22T20:23:34.000Z,1.43
2022-11-22T20:25:58.000Z,1.4
2022-11-22T20:28:24.000Z,1.6
2022-11-22T20:30:50.000Z,1.8
2022-11-22T20:33:16.000Z,1.4
2022-11-22T20:35:41.000Z,1.6
2022-11-22T20:38:07.000Z,1.55
2022-11-22T20:40:34.000Z,1.53
2022-11-22T20:42:59.000Z,1.6
2022-11-22T20:45:24.000Z,1.87
2022-11-22T20:47:50.000Z,2
2022-11-22T20:50:16.000Z,2.3
2022-11-22T20:52:43.000Z,2.4
2022-11-22T20:55:07.000Z,2.9
2022-11-22T20:57:33.000Z,2.9
2022-11-22T20:59:59.000Z,2.8
2022-11-22T21:02:27.000Z,2.7
2022-11-22T21:04:49.000Z,2.7
2022-11-22T21:07:16.000Z,2.5
2022-11-22T21:09:42.000Z,2.8
2022-11-22T21:12:08.000Z,2.87
2022-11-22T21:14:33.000Z,2.8
2022-11-22T21:16:59.000Z,2.85
2022-11-22T21:19:25.000Z,2.6
2022-11-22T21:21:51.000Z,2.6
2022-11-22T21:24:17.000Z,2.47
2022-11-22T21:26:42.000Z,2.5
2022-11-22T21:29:08.000Z,2.5
2022-11-22T21:31:35.000Z,2.1
2022-11-22T21:33:59.000Z,2.05
2022-11-22T21:36:25.000Z,2.4
2022-11-22T21:38:52.000Z,2.3
2022-11-22T21:41:18.000Z,2.3
2022-11-22T21:43:42.000Z,2.2
2022-11-22T21:46:09.000Z,1.9
2022-11-22T21:48:35.000Z,2.08
2022-11-22T21:50:59.000Z,2.2
2022-11-22T21:53:25.000Z,2.03
2022-11-22T21:55:50.000Z,2.37
2022-11-22T21:58:16.000Z,1.92
2022-11-22T22:00:54.000Z,2.43
2022-11-22T22:03:08.000Z,2.7
2022-11-22T22:05:34.000Z,2.5
2022-11-22T22:07:59.000Z,2.33
2022-11-22T22:10:25.000Z,2.7
2022-11-22T22:12:52.000Z,2.87
2022-11-22T22:15:17.000Z,2.72
2022-11-22T22:17:42.000Z,2.9
2022-11-22T22:20:08.000Z,2.97
2022-11-22T22:22:34.000Z,2.9
2022-11-22T22:24:59.000Z,3.3
2022-11-22T22:27:25.000Z,2.9
2022-11-22T22:29:51.000Z,3.27
2022-11-22T22:32:16.000Z,2.92
2022-11-22T22:34:42.000Z,3.02
2022-11-22T22:37:08.000Z,3.17
2022-11-22T22:39:33.000Z,3.07
2022-11-22T22:41:58.000Z,3.33
2022-11-22T22:44:25.000Z,3.3
2022-11-22T22:46:50.000Z,3.23
2022-11-22T22:49:16.000Z,3.5
2022-11-22T22:51:42.000Z,3.72
2022-11-22T22:54:08.000Z,3.8
2022-11-22T22:56:35.000Z,3.7
2022-11-22T22:58:59.000Z,4.33
2022-11-22T23:01:39.000Z,4.22
2022-11-22T23:03:51.000Z,4.37
2022-11-22T23:06:17.000Z,4.37
2022-11-22T23:08:43.000Z,4.7
2022-11-22T23:11:09.000Z,4.93
2022-11-22T23:13:36.000Z,4.85
2022-11-22T23:16:01.000Z,5.05
2022-11-22T23:18:27.000Z,5.25
2022-11-22T23:20:52.000Z,5
2022-11-22T23:23:19.000Z,5.47
2022-11-22T23:25:44.000Z,6.33
2022-11-22T23:28:10.000Z,6.25
2022-11-22T23:30:37.000Z,6.47
2022-11-22T23:33:02.000Z,7.47
2022-11-22T23:35:28.000Z,7.5
2022-11-22T23:37:53.000Z,7.83
2022-11-22T23:40:21.000Z,7.4
2022-11-22T23:42:45.000Z,7.83
2022-11-22T23:45:12.000Z,6.72
2022-11-22T23:47:37.000Z,7.25
2022-11-22T23:50:03.000Z,7.4
2022-11-22T23:52:29.000Z,7.57
2022-11-22T23:54:54.000Z,7.3
2022-11-22T23:57:20.000Z,8.28
2022-11-22T23:59:48.000Z,7.28
